sensor_id;sensor_type;location;lat;lon;timestamp;P1;durP1;ratioP1;P2;durP2;ratioP2
33246;SDS011;19606;50.108;19.804;2022-12-18T00:01:44;91.38;;;29.75;;
33246;SDS011;19606;50.108;19.804;2022-12-18T00:04:43;56.33;;;18.73;;
33246;SDS011;19606;50.108;19.804;2022-12-18T00:07:02;85.25;;;27.95;;
33246;SDS011;19606;50.108;19.804;2022-12-18T00:09:28;80.63;;;27.55;;
33246;SDS011;19606;50.108;19.804;2022-12-18T00:11:53;69.45;;;22.98;;
33246;SDS011;19606;50.108;19.804;2022-12-18T00:14:19;45.65;;;15.82;;
33246;SDS011;19606;50.108;19.804;2022-12-18T00:16:45;71.03;;;21.85;;
33246;SDS011;19606;50.108;19.804;2022-12-18T00:19:12;90.45;;;29.30;;
33246;SDS011;19606;50.108;19.804;2022-12-18T00:21:39;67.13;;;20.63;;
33246;SDS011;19606;50.108;19.804;2022-12-18T00:24:05;84.72;;;25.13;;
33246;SDS011;19606;50.108;19.804;2022-12-18T00:26:31;75.45;;;25.42;;
33246;SDS011;19606;50.108;19.804;2022-12-18T00:28:59;75.10;;;25.92;;
33246;SDS011;19606;50.108;19.804;2022-12-18T00:31:27;68.85;;;21.52;;
33246;SDS011;19606;50.108;19.804;2022-12-18T00:33:55;78.53;;;25.38;;
33246;SDS011;19606;50.108;19.804;2022-12-18T00:36:23;74.88;;;24.15;;
33246;SDS011;19606;50.108;19.804;2022-12-18T00:38:51;74.78;;;26.80;;
33246;SDS011;19606;50.108;19.804;2022-12-18T00:41:18;78.20;;;26.05;;
33246;SDS011;19606;50.108;19.804;2022-12-18T00:44:03;84.88;;;28.42;;
33246;SDS011;19606;50.108;19.804;2022-12-18T00:46:29;85.05;;;28.25;;
33246;SDS011;19606;50.108;19.804;2022-12-18T00:48:55;82.78;;;25.17;;
33246;SDS011;19606;50.108;19.804;2022-12-18T00:51:21;74.57;;;26.85;;
33246;SDS011;19606;50.108;19.804;2022-12-18T00:53:47;77.13;;;27.33;;
33246;SDS011;19606;50.108;19.804;2022-12-18T00:56:13;82.82;;;27.88;;
33246;SDS011;19606;50.108;19.804;2022-12-18T00:58:39;83.90;;;27.70;;
33246;SDS011;19606;50.108;19.804;2022-12-18T01:01:04;87.07;;;27.20;;
33246;SDS011;19606;50.108;19.804;2022-12-18T01:03:31;87.90;;;24.98;;
33246;SDS011;19606;50.108;19.804;2022-12-18T01:05:56;72.18;;;27.63;;
33246;SDS011;19606;50.108;19.804;2022-12-18T01:08:22;75.70;;;23.33;;
33246;SDS011;19606;50.108;19.804;2022-12-18T01:10:48;87.93;;;27.05;;
33246;SDS011;19606;50.108;19.804;2022-12-18T01:13:14;76.43;;;24.13;;
33246;SDS011;19606;50.108;19.804;2022-12-18T01:15:39;76.13;;;24.13;;
33246;SDS011;19606;50.108;19.804;2022-12-18T01:18:05;84.78;;;25.50;;
33246;SDS011;19606;50.108;19.804;2022-12-18T01:20:32;76.85;;;24.85;;
33246;SDS011;19606;50.108;19.804;2022-12-18T01:22:57;70.32;;;24.75;;
33246;SDS011;19606;50.108;19.804;2022-12-18T01:25:23;68.70;;;25.40;;
33246;SDS011;19606;50.108;19.804;2022-12-18T01:27:48;52.97;;;18.98;;
33246;SDS011;19606;50.108;19.804;2022-12-18T01:30:14;55.95;;;16.33;;
33246;SDS011;19606;50.108;19.804;2022-12-18T01:32:40;62.83;;;23.00;;
33246;SDS011;19606;50.108;19.804;2022-12-18T01:35:06;74.85;;;23.00;;
33246;SDS011;19606;50.108;19.804;2022-12-18T01:37:32;71.00;;;20.08;;
33246;SDS011;19606;50.108;19.804;2022-12-18T01:39:58;61.72;;;21.88;;
33246;SDS011;19606;50.108;19.804;2022-12-18T01:42:23;70.15;;;24.63;;
33246;SDS011;19606;50.108;19.804;2022-12-18T01:44:54;61.00;;;19.13;;
33246;SDS011;19606;50.108;19.804;2022-12-18T01:49:51;41.50;;;16.20;;
33246;SDS011;19606;50.108;19.804;2022-12-18T01:52:18;69.57;;;21.25;;
33246;SDS011;19606;50.108;19.804;2022-12-18T01:54:45;49.17;;;18.20;;
33246;SDS011;19606;50.108;19.804;2022-12-18T01:57:13;66.35;;;21.88;;
33246;SDS011;19606;50.108;19.804;2022-12-18T01:59:40;68.95;;;22.67;;
33246;SDS011;19606;50.108;19.804;2022-12-18T02:02:07;66.43;;;21.08;;
33246;SDS011;19606;50.108;19.804;2022-12-18T02:04:33;53.53;;;19.10;;
33246;SDS011;19606;50.108;19.804;2022-12-18T02:15:24;58.72;;;21.38;;
33246;SDS011;19606;50.108;19.804;2022-12-18T02:17:56;60.20;;;23.80;;
33246;SDS011;19606;50.108;19.804;2022-12-18T02:20:31;72.65;;;23.73;;
33246;SDS011;19606;50.108;19.804;2022-12-18T02:29:31;64.20;;;22.10;;
33246;SDS011;19606;50.108;19.804;2022-12-18T02:31:52;51.28;;;18.77;;
33246;SDS011;19606;50.108;19.804;2022-12-18T02:34:22;56.35;;;21.25;;
33246;SDS011;19606;50.108;19.804;2022-12-18T02:36:51;47.25;;;18.52;;
33246;SDS011;19606;50.108;19.804;2022-12-18T02:39:20;55.72;;;19.17;;
33246;SDS011;19606;50.108;19.804;2022-12-18T02:41:48;64.32;;;18.80;;
33246;SDS011;19606;50.108;19.804;2022-12-18T02:44:15;55.50;;;20.70;;
33246;SDS011;19606;50.108;19.804;2022-12-18T02:46:42;62.00;;;17.95;;
33246;SDS011;19606;50.108;19.804;2022-12-18T03:00:10;55.95;;;17.40;;
33246;SDS011;19606;50.108;19.804;2022-12-18T03:07:57;58.97;;;20.92;;
33246;SDS011;19606;50.108;19.804;2022-12-18T03:10:28;74.10;;;24.10;;
33246;SDS011;19606;50.108;19.804;2022-12-18T03:13:09;66.63;;;22.25;;
33246;SDS011;19606;50.108;19.804;2022-12-18T03:15:44;65.53;;;23.17;;
33246;SDS011;19606;50.108;19.804;2022-12-18T03:18:15;56.88;;;19.65;;
33246;SDS011;19606;50.108;19.804;2022-12-18T03:20:44;69.78;;;23.65;;
33246;SDS011;19606;50.108;19.804;2022-12-18T03:23:15;63.85;;;21.42;;
33246;SDS011;19606;50.108;19.804;2022-12-18T03:25:44;66.83;;;23.13;;
33246;SDS011;19606;50.108;19.804;2022-12-18T03:28:15;57.85;;;18.73;;
33246;SDS011;19606;50.108;19.804;2022-12-18T03:30:46;71.55;;;20.58;;
33246;SDS011;19606;50.108;19.804;2022-12-18T03:35:54;72.85;;;25.10;;
33246;SDS011;19606;50.108;19.804;2022-12-18T03:38:20;80.13;;;24.95;;
33246;SDS011;19606;50.108;19.804;2022-12-18T03:46:33;73.43;;;24.00;;
33246;SDS011;19606;50.108;19.804;2022-12-18T03:49:19;40.00;;;12.88;;
33246;SDS011;19606;50.108;19.804;2022-12-18T03:52:06;82.85;;;26.38;;
33246;SDS011;19606;50.108;19.804;2022-12-18T03:54:53;82.72;;;27.50;;
33246;SDS011;19606;50.108;19.804;2022-12-18T03:57:22;71.40;;;25.25;;
33246;SDS011;19606;50.108;19.804;2022-12-18T03:59:54;88.80;;;28.50;;
33246;SDS011;19606;50.108;19.804;2022-12-18T04:02:23;81.32;;;29.17;;
33246;SDS011;19606;50.108;19.804;2022-12-18T04:04:51;73.75;;;26.63;;
33246;SDS011;19606;50.108;19.804;2022-12-18T04:07:20;93.77;;;27.07;;
33246;SDS011;19606;50.108;19.804;2022-12-18T04:09:46;82.38;;;27.60;;
33246;SDS011;19606;50.108;19.804;2022-12-18T04:12:14;84.25;;;27.02;;
33246;SDS011;19606;50.108;19.804;2022-12-18T04:14:40;77.60;;;25.88;;
33246;SDS011;19606;50.108;19.804;2022-12-18T04:17:06;80.93;;;27.27;;
33246;SDS011;19606;50.108;19.804;2022-12-18T04:19:31;88.38;;;27.92;;
33246;SDS011;19606;50.108;19.804;2022-12-18T04:21:57;93.43;;;30.83;;
33246;SDS011;19606;50.108;19.804;2022-12-18T04:24:22;79.35;;;25.35;;
33246;SDS011;19606;50.108;19.804;2022-12-18T04:26:48;95.07;;;25.65;;
33246;SDS011;19606;50.108;19.804;2022-12-18T04:29:14;76.32;;;26.02;;
33246;SDS011;19606;50.108;19.804;2022-12-18T04:31:39;82.78;;;29.02;;
33246;SDS011;19606;50.108;19.804;2022-12-18T04:34:05;90.53;;;28.13;;
33246;SDS011;19606;50.108;19.804;2022-12-18T04:36:31;82.38;;;24.70;;
33246;SDS011;19606;50.108;19.804;2022-12-18T04:38:56;68.82;;;23.45;;
33246;SDS011;19606;50.108;19.804;2022-12-18T04:41:22;79.65;;;24.63;;
33246;SDS011;19606;50.108;19.804;2022-12-18T04:43:48;92.45;;;26.70;;
33246;SDS011;19606;50.108;19.804;2022-12-18T04:46:13;60.80;;;22.67;;
33246;SDS011;19606;50.108;19.804;2022-12-18T04:48:39;55.72;;;18.42;;
33246;SDS011;19606;50.108;19.804;2022-12-18T04:51:05;91.20;;;27.25;;
33246;SDS011;19606;50.108;19.804;2022-12-18T04:53:31;88.78;;;28.48;;
33246;SDS011;19606;50.108;19.804;2022-12-18T04:58:30;74.22;;;25.10;;
33246;SDS011;19606;50.108;19.804;2022-12-18T05:00:56;98.28;;;26.58;;
33246;SDS011;19606;50.108;19.804;2022-12-18T05:03:22;78.18;;;23.48;;
33246;SDS011;19606;50.108;19.804;2022-12-18T05:05:51;80.57;;;24.52;;
33246;SDS011;19606;50.108;19.804;2022-12-18T05:08:17;92.50;;;30.30;;
33246;SDS011;19606;50.108;19.804;2022-12-18T05:10:43;75.05;;;22.92;;
33246;SDS011;19606;50.108;19.804;2022-12-18T05:13:09;67.93;;;22.13;;
33246;SDS011;19606;50.108;19.804;2022-12-18T05:15:35;70.90;;;24.02;;
33246;SDS011;19606;50.108;19.804;2022-12-18T05:18:01;91.47;;;27.83;;
33246;SDS011;19606;50.108;19.804;2022-12-18T05:20:27;90.70;;;29.05;;
33246;SDS011;19606;50.108;19.804;2022-12-18T05:22:53;93.05;;;28.38;;
33246;SDS011;19606;50.108;19.804;2022-12-18T05:25:20;90.78;;;28.85;;
33246;SDS011;19606;50.108;19.804;2022-12-18T05:27:45;71.90;;;21.45;;
33246;SDS011;19606;50.108;19.804;2022-12-18T05:30:12;97.50;;;32.60;;
33246;SDS011;19606;50.108;19.804;2022-12-18T05:32:37;99.07;;;33.13;;
33246;SDS011;19606;50.108;19.804;2022-12-18T05:35:04;95.07;;;30.25;;
33246;SDS011;19606;50.108;19.804;2022-12-18T05:37:31;87.82;;;28.55;;
33246;SDS011;19606;50.108;19.804;2022-12-18T05:39:57;98.47;;;28.75;;
33246;SDS011;19606;50.108;19.804;2022-12-18T05:42:23;98.90;;;30.45;;
33246;SDS011;19606;50.108;19.804;2022-12-18T05:44:48;100.80;;;31.15;;
33246;SDS011;19606;50.108;19.804;2022-12-18T05:47:14;91.70;;;27.50;;
33246;SDS011;19606;50.108;19.804;2022-12-18T05:49:39;106.15;;;33.33;;
33246;SDS011;19606;50.108;19.804;2022-12-18T05:52:05;116.53;;;34.28;;
33246;SDS011;19606;50.108;19.804;2022-12-18T05:54:31;105.30;;;31.35;;
33246;SDS011;19606;50.108;19.804;2022-12-18T05:56:57;84.28;;;25.95;;
33246;SDS011;19606;50.108;19.804;2022-12-18T05:59:23;108.82;;;33.50;;
33246;SDS011;19606;50.108;19.804;2022-12-18T06:01:48;96.28;;;28.50;;
33246;SDS011;19606;50.108;19.804;2022-12-18T06:04:14;113.10;;;32.47;;
33246;SDS011;19606;50.108;19.804;2022-12-18T06:06:40;87.55;;;25.40;;
33246;SDS011;19606;50.108;19.804;2022-12-18T06:09:05;116.82;;;30.25;;
33246;SDS011;19606;50.108;19.804;2022-12-18T06:11:37;66.85;;;23.88;;
33246;SDS011;19606;50.108;19.804;2022-12-18T06:14:04;78.22;;;26.33;;
33246;SDS011;19606;50.108;19.804;2022-12-18T06:16:31;93.82;;;31.15;;
33246;SDS011;19606;50.108;19.804;2022-12-18T06:18:57;85.00;;;28.55;;
33246;SDS011;19606;50.108;19.804;2022-12-18T06:21:24;96.50;;;29.38;;
33246;SDS011;19606;50.108;19.804;2022-12-18T06:23:49;37.53;;;13.88;;
33246;SDS011;19606;50.108;19.804;2022-12-18T06:26:15;91.28;;;29.98;;
33246;SDS011;19606;50.108;19.804;2022-12-18T06:28:41;100.65;;;29.85;;
33246;SDS011;19606;50.108;19.804;2022-12-18T06:31:07;69.18;;;23.10;;
33246;SDS011;19606;50.108;19.804;2022-12-18T06:33:33;90.25;;;28.75;;
33246;SDS011;19606;50.108;19.804;2022-12-18T06:36:04;105.32;;;32.45;;
33246;SDS011;19606;50.108;19.804;2022-12-18T06:38:32;81.57;;;23.48;;
33246;SDS011;19606;50.108;19.804;2022-12-18T06:40:59;100.05;;;30.83;;
33246;SDS011;19606;50.108;19.804;2022-12-18T06:43:24;88.63;;;28.95;;
33246;SDS011;19606;50.108;19.804;2022-12-18T06:45:50;95.25;;;29.23;;
33246;SDS011;19606;50.108;19.804;2022-12-18T06:48:18;86.82;;;30.77;;
33246;SDS011;19606;50.108;19.804;2022-12-18T06:50:44;85.47;;;29.40;;
33246;SDS011;19606;50.108;19.804;2022-12-18T06:53:10;88.85;;;29.10;;
33246;SDS011;19606;50.108;19.804;2022-12-18T06:55:36;94.22;;;30.70;;
33246;SDS011;19606;50.108;19.804;2022-12-18T06:58:02;87.85;;;26.42;;
33246;SDS011;19606;50.108;19.804;2022-12-18T07:00:28;95.55;;;31.17;;
33246;SDS011;19606;50.108;19.804;2022-12-18T07:02:54;93.70;;;29.02;;
33246;SDS011;19606;50.108;19.804;2022-12-18T07:05:19;83.13;;;28.38;;
33246;SDS011;19606;50.108;19.804;2022-12-18T07:07:45;84.47;;;29.90;;
33246;SDS011;19606;50.108;19.804;2022-12-18T07:10:12;91.55;;;28.58;;
33246;SDS011;19606;50.108;19.804;2022-12-18T07:12:37;89.90;;;27.60;;
33246;SDS011;19606;50.108;19.804;2022-12-18T07:15:03;80.03;;;27.30;;
33246;SDS011;19606;50.108;19.804;2022-12-18T07:17:29;84.32;;;26.98;;
33246;SDS011;19606;50.108;19.804;2022-12-18T07:19:55;78.32;;;26.30;;
33246;SDS011;19606;50.108;19.804;2022-12-18T07:22:21;93.45;;;27.55;;
33246;SDS011;19606;50.108;19.804;2022-12-18T07:24:49;97.20;;;30.55;;
33246;SDS011;19606;50.108;19.804;2022-12-18T07:27:15;96.93;;;31.05;;
33246;SDS011;19606;50.108;19.804;2022-12-18T07:29:40;86.65;;;29.80;;
33246;SDS011;19606;50.108;19.804;2022-12-18T07:32:06;100.65;;;28.83;;
33246;SDS011;19606;50.108;19.804;2022-12-18T07:34:32;80.22;;;30.83;;
33246;SDS011;19606;50.108;19.804;2022-12-18T07:36:58;91.35;;;29.10;;
33246;SDS011;19606;50.108;19.804;2022-12-18T07:39:23;93.15;;;31.40;;
33246;SDS011;19606;50.108;19.804;2022-12-18T07:41:49;87.40;;;29.00;;
33246;SDS011;19606;50.108;19.804;2022-12-18T07:44:35;96.82;;;29.90;;
33246;SDS011;19606;50.108;19.804;2022-12-18T07:47:01;86.28;;;31.10;;
33246;SDS011;19606;50.108;19.804;2022-12-18T07:49:27;85.38;;;28.08;;
33246;SDS011;19606;50.108;19.804;2022-12-18T07:51:54;84.22;;;27.42;;
33246;SDS011;19606;50.108;19.804;2022-12-18T07:54:20;96.47;;;30.63;;
33246;SDS011;19606;50.108;19.804;2022-12-18T07:56:45;92.47;;;29.83;;
33246;SDS011;19606;50.108;19.804;2022-12-18T07:59:11;93.72;;;30.05;;
33246;SDS011;19606;50.108;19.804;2022-12-18T08:01:37;101.75;;;32.20;;
33246;SDS011;19606;50.108;19.804;2022-12-18T08:04:02;107.85;;;32.47;;
33246;SDS011;19606;50.108;19.804;2022-12-18T08:06:28;87.85;;;28.13;;
33246;SDS011;19606;50.108;19.804;2022-12-18T08:08:54;91.75;;;30.10;;
33246;SDS011;19606;50.108;19.804;2022-12-18T08:11:20;101.60;;;32.63;;
33246;SDS011;19606;50.108;19.804;2022-12-18T08:13:47;93.25;;;30.38;;
33246;SDS011;19606;50.108;19.804;2022-12-18T08:16:13;91.75;;;29.85;;
33246;SDS011;19606;50.108;19.804;2022-12-18T08:18:38;100.95;;;31.60;;
33246;SDS011;19606;50.108;19.804;2022-12-18T08:21:08;91.50;;;31.10;;
33246;SDS011;19606;50.108;19.804;2022-12-18T08:23:34;101.93;;;31.23;;
33246;SDS011;19606;50.108;19.804;2022-12-18T08:26:00;96.00;;;32.80;;
33246;SDS011;19606;50.108;19.804;2022-12-18T08:28:29;101.43;;;33.22;;
33246;SDS011;19606;50.108;19.804;2022-12-18T08:30:54;100.82;;;33.55;;
33246;SDS011;19606;50.108;19.804;2022-12-18T08:33:20;97.72;;;35.08;;
33246;SDS011;19606;50.108;19.804;2022-12-18T08:35:46;101.78;;;35.35;;
33246;SDS011;19606;50.108;19.804;2022-12-18T08:38:11;120.32;;;40.40;;
33246;SDS011;19606;50.108;19.804;2022-12-18T08:40:37;94.07;;;35.05;;
33246;SDS011;19606;50.108;19.804;2022-12-18T08:43:03;116.68;;;40.83;;
33246;SDS011;19606;50.108;19.804;2022-12-18T08:45:47;111.57;;;38.92;;
33246;SDS011;19606;50.108;19.804;2022-12-18T08:48:13;118.45;;;40.17;;
33246;SDS011;19606;50.108;19.804;2022-12-18T08:50:38;102.00;;;36.30;;
33246;SDS011;19606;50.108;19.804;2022-12-18T08:53:04;137.10;;;50.80;;
33246;SDS011;19606;50.108;19.804;2022-12-18T08:55:29;103.93;;;37.25;;
33246;SDS011;19606;50.108;19.804;2022-12-18T08:57:55;108.93;;;35.92;;
33246;SDS011;19606;50.108;19.804;2022-12-18T09:00:21;105.22;;;36.88;;
33246;SDS011;19606;50.108;19.804;2022-12-18T09:02:47;109.55;;;39.33;;
33246;SDS011;19606;50.108;19.804;2022-12-18T09:05:12;109.18;;;39.22;;
33246;SDS011;19606;50.108;19.804;2022-12-18T09:07:38;110.60;;;41.25;;
33246;SDS011;19606;50.108;19.804;2022-12-18T09:10:04;114.38;;;40.42;;
33246;SDS011;19606;50.108;19.804;2022-12-18T09:12:30;103.82;;;39.88;;
33246;SDS011;19606;50.108;19.804;2022-12-18T09:14:56;111.35;;;37.28;;
33246;SDS011;19606;50.108;19.804;2022-12-18T09:17:22;100.72;;;36.75;;
33246;SDS011;19606;50.108;19.804;2022-12-18T09:19:47;107.70;;;36.90;;
33246;SDS011;19606;50.108;19.804;2022-12-18T09:22:14;103.50;;;37.83;;
33246;SDS011;19606;50.108;19.804;2022-12-18T09:24:39;106.15;;;37.63;;
33246;SDS011;19606;50.108;19.804;2022-12-18T09:27:05;101.85;;;37.88;;
33246;SDS011;19606;50.108;19.804;2022-12-18T09:29:31;100.50;;;36.35;;
33246;SDS011;19606;50.108;19.804;2022-12-18T09:31:57;107.60;;;38.60;;
33246;SDS011;19606;50.108;19.804;2022-12-18T09:34:23;103.72;;;38.10;;
33246;SDS011;19606;50.108;19.804;2022-12-18T09:36:48;100.70;;;36.20;;
33246;SDS011;19606;50.108;19.804;2022-12-18T09:39:14;99.85;;;37.33;;
33246;SDS011;19606;50.108;19.804;2022-12-18T09:41:41;110.35;;;39.63;;
33246;SDS011;19606;50.108;19.804;2022-12-18T09:44:32;121.68;;;45.45;;
33246;SDS011;19606;50.108;19.804;2022-12-18T09:47:05;103.95;;;37.88;;
33246;SDS011;19606;50.108;19.804;2022-12-18T09:49:34;95.72;;;33.20;;
33246;SDS011;19606;50.108;19.804;2022-12-18T09:52:08;106.78;;;35.90;;
33246;SDS011;19606;50.108;19.804;2022-12-18T09:54:46;91.45;;;32.00;;
33246;SDS011;19606;50.108;19.804;2022-12-18T09:57:17;88.53;;;32.15;;
33246;SDS011;19606;50.108;19.804;2022-12-18T09:59:54;98.55;;;33.05;;
33246;SDS011;19606;50.108;19.804;2022-12-18T10:02:24;88.68;;;31.00;;
33246;SDS011;19606;50.108;19.804;2022-12-18T10:04:56;88.65;;;33.08;;
33246;SDS011;19606;50.108;19.804;2022-12-18T10:20:56;90.55;;;30.27;;
33246;SDS011;19606;50.108;19.804;2022-12-18T10:28:33;52.47;;;17.90;;
33246;SDS011;19606;50.108;19.804;2022-12-18T10:31:07;61.13;;;22.02;;
33246;SDS011;19606;50.108;19.804;2022-12-18T10:33:41;56.95;;;20.20;;
33246;SDS011;19606;50.108;19.804;2022-12-18T10:36:08;52.70;;;19.02;;
33246;SDS011;19606;50.108;19.804;2022-12-18T10:38:34;68.30;;;22.67;;
33246;SDS011;19606;50.108;19.804;2022-12-18T10:41:07;75.10;;;25.75;;
33246;SDS011;19606;50.108;19.804;2022-12-18T10:44:10;88.57;;;31.38;;
33246;SDS011;19606;50.108;19.804;2022-12-18T10:46:48;77.70;;;29.55;;
33246;SDS011;19606;50.108;19.804;2022-12-18T10:49:23;72.47;;;29.60;;
33246;SDS011;19606;50.108;19.804;2022-12-18T10:52:07;68.28;;;24.48;;
33246;SDS011;19606;50.108;19.804;2022-12-18T10:54:40;52.90;;;22.90;;
33246;SDS011;19606;50.108;19.804;2022-12-18T10:57:16;59.58;;;24.60;;
33246;SDS011;19606;50.108;19.804;2022-12-18T10:59:56;62.90;;;25.00;;
33246;SDS011;19606;50.108;19.804;2022-12-18T11:02:37;57.60;;;22.52;;
33246;SDS011;19606;50.108;19.804;2022-12-18T11:05:22;56.57;;;23.03;;
33246;SDS011;19606;50.108;19.804;2022-12-18T11:07:48;54.63;;;24.45;;
33246;SDS011;19606;50.108;19.804;2022-12-18T11:10:18;63.47;;;25.83;;
33246;SDS011;19606;50.108;19.804;2022-12-18T11:12:45;50.97;;;24.03;;
33246;SDS011;19606;50.108;19.804;2022-12-18T11:15:15;54.55;;;24.65;;
33246;SDS011;19606;50.108;19.804;2022-12-18T11:17:47;55.88;;;24.08;;
33246;SDS011;19606;50.108;19.804;2022-12-18T11:20:35;54.78;;;23.70;;
33246;SDS011;19606;50.108;19.804;2022-12-18T11:23:01;57.92;;;26.25;;
33246;SDS011;19606;50.108;19.804;2022-12-18T11:25:30;65.85;;;25.92;;
33246;SDS011;19606;50.108;19.804;2022-12-18T11:27:58;62.80;;;26.23;;
33246;SDS011;19606;50.108;19.804;2022-12-18T11:30:30;63.22;;;26.30;;
33246;SDS011;19606;50.108;19.804;2022-12-18T11:38:00;55.25;;;25.27;;
33246;SDS011;19606;50.108;19.804;2022-12-18T11:40:38;54.08;;;25.10;;
33246;SDS011;19606;50.108;19.804;2022-12-18T11:43:14;60.50;;;25.33;;
33246;SDS011;19606;50.108;19.804;2022-12-18T11:45:53;53.90;;;24.60;;
33246;SDS011;19606;50.108;19.804;2022-12-18T11:48:37;57.58;;;22.40;;
33246;SDS011;19606;50.108;19.804;2022-12-18T11:51:04;59.47;;;24.02;;
33246;SDS011;19606;50.108;19.804;2022-12-18T11:53:36;46.80;;;21.40;;
33246;SDS011;19606;50.108;19.804;2022-12-18T12:08:32;58.08;;;21.30;;
33246;SDS011;19606;50.108;19.804;2022-12-18T12:11:11;58.47;;;22.15;;
33246;SDS011;19606;50.108;19.804;2022-12-18T12:13:47;59.13;;;22.92;;
33246;SDS011;19606;50.108;19.804;2022-12-18T12:16:29;59.83;;;22.17;;
33246;SDS011;19606;50.108;19.804;2022-12-18T12:21:40;66.22;;;23.25;;
33246;SDS011;19606;50.108;19.804;2022-12-18T12:26:49;64.43;;;23.10;;
33246;SDS011;19606;50.108;19.804;2022-12-18T12:40:10;59.83;;;21.38;;
33246;SDS011;19606;50.108;19.804;2022-12-18T12:42:47;59.33;;;21.95;;
33246;SDS011;19606;50.108;19.804;2022-12-18T12:45:42;62.58;;;23.58;;
33246;SDS011;19606;50.108;19.804;2022-12-18T12:51:43;63.33;;;22.67;;
33246;SDS011;19606;50.108;19.804;2022-12-18T12:54:24;65.45;;;24.30;;
33246;SDS011;19606;50.108;19.804;2022-12-18T12:57:08;69.90;;;26.35;;
33246;SDS011;19606;50.108;19.804;2022-12-18T12:59:49;75.43;;;24.85;;
33246;SDS011;19606;50.108;19.804;2022-12-18T13:07:54;68.90;;;24.13;;
33246;SDS011;19606;50.108;19.804;2022-12-18T13:10:31;67.22;;;25.77;;
33246;SDS011;19606;50.108;19.804;2022-12-18T13:25:48;73.72;;;26.33;;
33246;SDS011;19606;50.108;19.804;2022-12-18T13:29:00;65.05;;;23.75;;
33246;SDS011;19606;50.108;19.804;2022-12-18T13:31:09;68.63;;;23.92;;
33246;SDS011;19606;50.108;19.804;2022-12-18T13:33:37;63.47;;;22.85;;
33246;SDS011;19606;50.108;19.804;2022-12-18T13:36:15;73.13;;;24.05;;
33246;SDS011;19606;50.108;19.804;2022-12-18T13:38:41;73.97;;;22.75;;
33246;SDS011;19606;50.108;19.804;2022-12-18T13:43:44;71.75;;;25.27;;
33246;SDS011;19606;50.108;19.804;2022-12-18T13:46:28;74.10;;;25.77;;
33246;SDS011;19606;50.108;19.804;2022-12-18T13:49:20;86.53;;;26.50;;
33246;SDS011;19606;50.108;19.804;2022-12-18T13:51:48;69.82;;;25.02;;
33246;SDS011;19606;50.108;19.804;2022-12-18T13:56:49;72.40;;;25.75;;
33246;SDS011;19606;50.108;19.804;2022-12-18T13:59:16;67.03;;;23.83;;
33246;SDS011;19606;50.108;19.804;2022-12-18T14:04:22;127.53;;;43.67;;
33246;SDS011;19606;50.108;19.804;2022-12-18T14:07:05;95.55;;;34.83;;
33246;SDS011;19606;50.108;19.804;2022-12-18T14:09:40;97.55;;;33.30;;
33246;SDS011;19606;50.108;19.804;2022-12-18T14:12:14;82.90;;;28.92;;
33246;SDS011;19606;50.108;19.804;2022-12-18T14:15:02;91.38;;;30.02;;
33246;SDS011;19606;50.108;19.804;2022-12-18T14:17:28;106.07;;;37.15;;
33246;SDS011;19606;50.108;19.804;2022-12-18T14:19:56;119.07;;;40.60;;
33246;SDS011;19606;50.108;19.804;2022-12-18T14:22:25;114.90;;;38.88;;
33246;SDS011;19606;50.108;19.804;2022-12-18T14:27:42;99.60;;;34.88;;
33246;SDS011;19606;50.108;19.804;2022-12-18T14:30:43;103.90;;;33.70;;
33246;SDS011;19606;50.108;19.804;2022-12-18T14:33:09;93.22;;;31.15;;
33246;SDS011;19606;50.108;19.804;2022-12-18T14:35:41;103.20;;;34.88;;
33246;SDS011;19606;50.108;19.804;2022-12-18T14:38:17;97.32;;;30.70;;
33246;SDS011;19606;50.108;19.804;2022-12-18T14:40:58;90.78;;;32.30;;
33246;SDS011;19606;50.108;19.804;2022-12-18T14:43:29;95.97;;;33.58;;
33246;SDS011;19606;50.108;19.804;2022-12-18T14:45:57;101.40;;;33.95;;
33246;SDS011;19606;50.108;19.804;2022-12-18T14:48:31;97.07;;;35.10;;
33246;SDS011;19606;50.108;19.804;2022-12-18T14:51:16;99.60;;;34.90;;
33246;SDS011;19606;50.108;19.804;2022-12-18T14:56:21;112.28;;;41.80;;
33246;SDS011;19606;50.108;19.804;2022-12-18T14:58:59;116.53;;;41.38;;
33246;SDS011;19606;50.108;19.804;2022-12-18T15:01:29;85.28;;;33.72;;
33246;SDS011;19606;50.108;19.804;2022-12-18T15:03:58;132.90;;;46.05;;
33246;SDS011;19606;50.108;19.804;2022-12-18T15:06:35;136.85;;;49.17;;
33246;SDS011;19606;50.108;19.804;2022-12-18T15:09:06;127.47;;;44.75;;
33246;SDS011;19606;50.108;19.804;2022-12-18T15:11:54;144.30;;;48.15;;
33246;SDS011;19606;50.108;19.804;2022-12-18T15:17:13;140.07;;;48.22;;
33246;SDS011;19606;50.108;19.804;2022-12-18T15:19:44;142.90;;;47.75;;
33246;SDS011;19606;50.108;19.804;2022-12-18T15:22:56;143.73;;;52.28;;
33246;SDS011;19606;50.108;19.804;2022-12-18T15:24:57;153.25;;;52.78;;
33246;SDS011;19606;50.108;19.804;2022-12-18T15:27:31;144.43;;;51.60;;
33246;SDS011;19606;50.108;19.804;2022-12-18T15:32:34;147.10;;;47.67;;
33246;SDS011;19606;50.108;19.804;2022-12-18T15:35:22;138.85;;;49.65;;
33246;SDS011;19606;50.108;19.804;2022-12-18T15:37:50;135.90;;;48.85;;
33246;SDS011;19606;50.108;19.804;2022-12-18T15:40:21;136.38;;;47.92;;
33246;SDS011;19606;50.108;19.804;2022-12-18T15:42:49;153.07;;;50.97;;
33246;SDS011;19606;50.108;19.804;2022-12-18T15:45:36;133.32;;;52.47;;
33246;SDS011;19606;50.108;19.804;2022-12-18T15:48:04;129.63;;;46.05;;
33246;SDS011;19606;50.108;19.804;2022-12-18T15:50:49;136.60;;;47.28;;
33246;SDS011;19606;50.108;19.804;2022-12-18T15:53:17;133.52;;;47.13;;
33246;SDS011;19606;50.108;19.804;2022-12-18T15:55:43;133.23;;;47.55;;
33246;SDS011;19606;50.108;19.804;2022-12-18T15:58:27;140.13;;;52.50;;
33246;SDS011;19606;50.108;19.804;2022-12-18T16:00:52;131.48;;;46.42;;
33246;SDS011;19606;50.108;19.804;2022-12-18T16:03:20;136.73;;;47.53;;
33246;SDS011;19606;50.108;19.804;2022-12-18T16:05:46;131.10;;;47.75;;
33246;SDS011;19606;50.108;19.804;2022-12-18T16:08:12;135.80;;;48.17;;
33246;SDS011;19606;50.108;19.804;2022-12-18T16:10:38;144.98;;;47.53;;
33246;SDS011;19606;50.108;19.804;2022-12-18T16:13:03;134.30;;;50.15;;
33246;SDS011;19606;50.108;19.804;2022-12-18T16:15:29;154.77;;;51.97;;
33246;SDS011;19606;50.108;19.804;2022-12-18T16:17:54;138.38;;;49.83;;
33246;SDS011;19606;50.108;19.804;2022-12-18T16:20:21;140.75;;;48.58;;
33246;SDS011;19606;50.108;19.804;2022-12-18T16:22:47;154.55;;;53.45;;
33246;SDS011;19606;50.108;19.804;2022-12-18T16:25:19;152.85;;;54.83;;
33246;SDS011;19606;50.108;19.804;2022-12-18T16:27:46;154.02;;;53.30;;
33246;SDS011;19606;50.108;19.804;2022-12-18T16:30:13;164.35;;;55.83;;
33246;SDS011;19606;50.108;19.804;2022-12-18T16:32:44;151.90;;;56.78;;
33246;SDS011;19606;50.108;19.804;2022-12-18T16:35:11;182.90;;;65.45;;
33246;SDS011;19606;50.108;19.804;2022-12-18T16:37:38;185.75;;;65.38;;